createdAt,value
2023-04-14T00:01:50.662Z,20.93
2023-04-14T00:04:20.216Z,21.40
2023-04-14T00:06:49.255Z,21.10
2023-04-14T00:09:18.251Z,21.17
2023-04-14T00:11:49.684Z,23.30
2023-04-14T00:14:18.885Z,23.37
2023-04-14T00:16:47.947Z,23.93
2023-04-14T00:19:17.034Z,22.83
2023-04-14T00:21:46.014Z,21.97
2023-04-14T00:24:15.271Z,22.60
2023-04-14T00:26:44.226Z,22.27
2023-04-14T00:29:14.700Z,22.87
2023-04-14T00:31:44.372Z,23.93
2023-04-14T00:34:13.676Z,22.67
2023-04-14T00:36:42.634Z,20.87
2023-04-14T00:39:11.540Z,21.10
2023-04-14T00:41:40.633Z,26.80
2023-04-14T00:44:09.562Z,23.27
2023-04-14T00:46:42.189Z,21.50
2023-04-14T00:49:11.516Z,21.00
2023-04-14T00:51:40.598Z,23.10
2023-04-14T00:54:11.136Z,22.87
2023-04-14T00:56:40.960Z,21.87
2023-04-14T00:59:11.401Z,23.23
2023-04-14T01:01:48.056Z,23.13
2023-04-14T01:04:23.338Z,21.73
2023-04-14T01:06:54.326Z,20.83
2023-04-14T01:09:41.614Z,21.77
2023-04-14T01:12:23.284Z,20.40
2023-04-14T01:15:06.977Z,20.43
2023-04-14T01:17:45.724Z,19.97
2023-04-14T01:20:24.447Z,22.83
2023-04-14T01:22:59.437Z,19.10
2023-04-14T01:25:56.788Z,18.63
2023-04-14T01:28:43.940Z,18.13
2023-04-14T01:31:34.052Z,18.00
2023-04-14T01:34:26.813Z,18.53
2023-04-14T01:37:03.844Z,20.50
2023-04-14T01:39:37.235Z,18.10
2023-04-14T01:42:10.674Z,15.97
2023-04-14T01:44:42.089Z,17.37
2023-04-14T01:47:16.925Z,19.40
2023-04-14T01:49:49.030Z,13.57
2023-04-14T01:52:20.649Z,15.13
2023-04-14T01:54:53.876Z,15.83
2023-04-14T01:57:24.343Z,15.60
2023-04-14T01:59:55.290Z,14.87
2023-04-14T02:02:27.783Z,14.53
2023-04-14T02:04:58.553Z,14.83
2023-04-14T02:07:29.628Z,13.97
2023-04-14T02:10:00.046Z,13.03
2023-04-14T02:12:31.784Z,13.40
2023-04-14T02:15:03.047Z,13.73
2023-04-14T02:17:36.315Z,12.83
2023-04-14T02:20:07.562Z,12.73
2023-04-14T02:22:36.750Z,21.03
2023-04-14T02:25:06.062Z,94.03
2023-04-14T02:27:39.706Z,20.10
2023-04-14T02:30:13.881Z,15.23
2023-04-14T02:32:51.252Z,12.77
2023-04-14T02:35:27.110Z,15.83
2023-04-14T02:38:05.546Z,13.90
2023-04-14T02:40:39.729Z,14.03
2023-04-14T02:43:14.736Z,14.13
2023-04-14T02:45:47.262Z,13.73
2023-04-14T02:48:20.035Z,14.10
2023-04-14T02:50:52.114Z,14.07
2023-04-14T02:53:26.856Z,14.60
2023-04-14T02:56:19.201Z,14.27
2023-04-14T02:58:50.529Z,15.57
2023-04-14T03:01:21.539Z,15.80
2023-04-14T03:03:56.421Z,15.37
2023-04-14T03:06:27.638Z,17.00
2023-04-14T03:08:59.431Z,15.10
2023-04-14T03:11:30.298Z,15.53
2023-04-14T03:14:00.306Z,15.13
2023-04-14T03:16:31.362Z,14.83
2023-04-14T03:19:05.487Z,18.10
2023-04-14T03:21:55.502Z,16.13
2023-04-14T03:24:27.607Z,17.33
2023-04-14T03:27:02.608Z,16.43
2023-04-14T03:29:38.072Z,15.43
2023-04-14T03:32:08.770Z,15.70
2023-04-14T03:34:46.727Z,14.80
2023-04-14T03:37:19.009Z,16.83
2023-04-14T03:39:52.224Z,16.40
2023-04-14T03:42:22.712Z,16.27
2023-04-14T03:44:54.506Z,15.90
2023-04-14T03:47:24.904Z,17.07
2023-04-14T03:49:59.887Z,16.57
2023-04-14T03:52:32.651Z,16.23
2023-04-14T03:55:06.784Z,16.43
2023-04-14T03:57:40.891Z,15.57
2023-04-14T04:00:14.249Z,15.73
2023-04-14T04:03:02.650Z,14.73
2023-04-14T04:05:33.921Z,15.33
2023-04-14T04:08:04.649Z,16.70
2023-04-14T04:10:36.270Z,14.83
2023-04-14T04:13:08.609Z,15.50
2023-04-14T04:15:39.304Z,14.73
2023-04-14T04:18:10.039Z,14.80
2023-04-14T04:20:43.779Z,16.23
2023-04-14T04:23:13.831Z,15.30
2023-04-14T04:25:43.642Z,15.00
2023-04-14T04:28:31.075Z,21.33
2023-04-14T04:31:01.820Z,27.63
2023-04-14T04:33:32.888Z,21.87
2023-04-14T04:36:06.735Z,19.13
2023-04-14T04:38:41.338Z,16.10
2023-04-14T04:41:21.785Z,15.33
2023-04-14T04:43:51.958Z,15.30
2023-04-14T04:46:37.727Z,14.03
2023-04-14T04:49:06.921Z,13.33
2023-04-14T04:51:37.702Z,11.90
2023-04-14T04:54:07.246Z,13.10
2023-04-14T04:56:36.529Z,14.00
2023-04-14T04:59:06.075Z,14.40
2023-04-14T05:01:35.291Z,14.60
2023-04-14T05:04:04.444Z,15.47
2023-04-14T05:06:38.597Z,14.57
2023-04-14T05:09:07.927Z,15.07
2023-04-14T05:11:37.086Z,14.20
2023-04-14T05:14:26.297Z,14.23
2023-04-14T05:16:57.159Z,15.67
2023-04-14T05:19:26.210Z,15.90
2023-04-14T05:21:57.608Z,15.87
2023-04-14T05:24:26.764Z,15.93
2023-04-14T05:27:13.047Z,14.80
2023-04-14T05:29:43.593Z,18.03
2023-04-14T05:32:14.694Z,14.67
2023-04-14T05:34:46.109Z,14.63
2023-04-14T05:37:17.190Z,16.60
2023-04-14T05:39:46.495Z,13.93
2023-04-14T05:42:15.701Z,15.07
2023-04-14T05:44:51.766Z,14.57
2023-04-14T05:47:22.091Z,12.97
2023-04-14T05:50:00.049Z,13.60
2023-04-14T05:52:31.011Z,13.40
2023-04-14T05:55:00.029Z,14.80
2023-04-14T05:57:28.994Z,14.80
2023-04-14T05:59:58.410Z,14.83
2023-04-14T06:02:31.942Z,13.10
2023-04-14T06:05:02.525Z,12.00
2023-04-14T06:07:33.066Z,14.37
2023-04-14T06:10:02.388Z,12.70
2023-04-14T06:12:42.490Z,10.90
2023-04-14T06:15:11.858Z,11.90
2023-04-14T06:17:41.234Z,9.67
2023-04-14T06:20:16.241Z,11.70
2023-04-14T06:22:47.940Z,11.07
2023-04-14T06:25:17.174Z,10.50
2023-04-14T06:27:46.002Z,12.03
2023-04-14T06:30:17.318Z,12.80
2023-04-14T06:32:46.746Z,13.90
2023-04-14T06:35:32.259Z,13.30
2023-04-14T06:38:03.321Z,11.10
2023-04-14T06:40:32.375Z,10.73
2023-04-14T06:43:02.530Z,16.00
2023-04-14T06:45:31.410Z,13.33
2023-04-14T06:48:00.551Z,12.80
2023-04-14T06:50:29.452Z,11.97
2023-04-14T06:52:58.372Z,10.97
2023-04-14T06:55:30.418Z,13.57
2023-04-14T06:58:01.066Z,9.97
2023-04-14T07:00:30.439Z,9.50
2023-04-14T07:02:59.444Z,10.23
2023-04-14T07:05:28.451Z,8.83
2023-04-14T07:07:57.636Z,8.20
2023-04-14T07:10:28.120Z,8.37
2023-04-14T07:12:57.048Z,8.23
2023-04-14T07:15:54.107Z,8.10
2023-04-14T07:18:26.538Z,7.80
2023-04-14T07:20:55.920Z,8.77
2023-04-14T07:23:24.863Z,8.50
2023-04-14T07:25:56.842Z,8.47
2023-04-14T07:28:27.053Z,7.97
2023-04-14T07:30:56.964Z,9.17
2023-04-14T07:33:27.223Z,7.40
2023-04-14T07:36:01.923Z,7.87
2023-04-14T07:38:38.372Z,6.13
2023-04-14T07:41:09.993Z,10.07
2023-04-14T07:43:40.266Z,11.07
2023-04-14T07:46:28.045Z,8.50
2023-04-14T07:48:57.144Z,13.67
2023-04-14T07:51:26.310Z,17.33
2023-04-14T07:53:59.906Z,27.63
2023-04-14T07:56:34.663Z,16.27
2023-04-14T07:59:09.076Z,7.57
2023-04-14T08:01:39.015Z,8.77
2023-04-14T08:04:08.387Z,7.43
2023-04-14T08:06:37.885Z,19.83
2023-04-14T08:09:07.202Z,6.40
2023-04-14T08:11:37.603Z,7.60
2023-04-14T08:14:06.661Z,8.87
2023-04-14T08:16:37.000Z,8.90
2023-04-14T08:19:06.485Z,9.20
2023-04-14T08:21:35.474Z,7.43
2023-04-14T08:24:06.701Z,7.97
2023-04-14T08:26:37.228Z,6.30
2023-04-14T08:29:06.356Z,11.43
2023-04-14T08:31:35.455Z,7.10
2023-04-14T08:34:04.670Z,7.43
2023-04-14T08:36:33.655Z,6.33
2023-04-14T08:39:02.726Z,6.07
2023-04-14T08:41:36.581Z,6.70
2023-04-14T08:44:05.713Z,6.73
2023-04-14T08:46:35.087Z,6.00
2023-04-14T08:49:06.670Z,5.33
2023-04-14T08:51:37.572Z,10.17
2023-04-14T08:54:25.355Z,6.37
2023-04-14T08:56:58.887Z,7.13
2023-04-14T08:59:30.316Z,6.63
2023-04-14T09:02:07.210Z,7.17
2023-04-14T09:04:55.490Z,8.00
2023-04-14T09:07:24.694Z,9.53
2023-04-14T09:09:53.858Z,6.87
2023-04-14T09:12:27.506Z,5.03
2023-04-14T09:14:58.363Z,6.47
2023-04-14T09:17:29.900Z,11.53
2023-04-14T09:20:36.434Z,12.13
2023-04-14T09:22:48.574Z,8.97
2023-04-14T09:25:20.029Z,6.77
2023-04-14T09:27:51.571Z,7.10
2023-04-14T09:30:21.077Z,6.57
2023-04-14T09:32:53.800Z,5.43
2023-04-14T09:35:23.140Z,3.57
2023-04-14T09:37:52.292Z,6.07
2023-04-14T09:40:31.326Z,7.97
2023-04-14T09:43:02.928Z,4.20
2023-04-14T09:45:48.049Z,6.20
2023-04-14T09:48:17.130Z,6.90
2023-04-14T09:51:00.136Z,4.17
2023-04-14T09:53:33.028Z,7.60
2023-04-14T09:56:05.197Z,6.43
2023-04-14T09:58:37.770Z,6.40
2023-04-14T10:01:13.053Z,8.77
2023-04-14T10:03:43.638Z,6.50
2023-04-14T10:06:21.074Z,3.50
2023-04-14T10:08:51.823Z,4.10
2023-04-14T10:11:22.055Z,5.40
2023-04-14T10:14:11.039Z,5.60
2023-04-14T10:16:40.214Z,5.13
2023-04-14T10:19:09.218Z,6.73
2023-04-14T10:21:38.098Z,21.83
2023-04-14T10:24:07.420Z,6.60
2023-04-14T10:26:37.412Z,5.70
2023-04-14T10:29:06.737Z,3.83
2023-04-14T10:31:42.925Z,3.33
2023-04-14T10:34:14.242Z,5.00
2023-04-14T10:36:43.925Z,4.20
2023-04-14T10:39:14.275Z,4.77
2023-04-14T10:41:50.472Z,4.90
2023-04-14T10:44:27.305Z,7.07
2023-04-14T10:46:58.156Z,5.90
2023-04-14T10:49:31.958Z,3.83
2023-04-14T10:52:03.432Z,5.17
2023-04-14T10:54:53.697Z,3.90
2023-04-14T10:57:24.471Z,5.80
2023-04-14T10:59:57.392Z,4.20
2023-04-14T11:02:30.343Z,4.63
2023-04-14T11:05:01.287Z,5.13
2023-04-14T11:07:31.493Z,6.03
2023-04-14T11:10:05.366Z,8.50
2023-04-14T11:12:44.765Z,7.37
2023-04-14T11:15:14.239Z,4.17
2023-04-14T11:17:45.566Z,6.50
2023-04-14T11:20:18.386Z,6.10
2023-04-14T11:22:48.907Z,12.30
2023-04-14T11:25:23.026Z,5.80
2023-04-14T11:27:53.465Z,5.70
2023-04-14T11:30:23.089Z,5.10
2023-04-14T11:32:54.951Z,7.87
2023-04-14T11:35:26.440Z,15.77
2023-04-14T11:37:56.263Z,12.67
2023-04-14T11:40:26.702Z,11.80
2023-04-14T11:42:57.473Z,10.73
2023-04-14T11:45:45.380Z,6.53
2023-04-14T11:48:18.513Z,6.43
2023-04-14T11:51:06.477Z,8.43
2023-04-14T11:53:35.460Z,11.00
2023-04-14T11:56:04.613Z,5.87
2023-04-14T11:58:34.092Z,8.50
2023-04-14T12:01:03.061Z,8.47
2023-04-14T12:03:35.880Z,13.37
2023-04-14T12:06:05.909Z,9.20
2023-04-14T12:08:35.212Z,6.27
2023-04-14T12:11:14.825Z,10.10
2023-04-14T12:13:44.716Z,7.27
2023-04-14T12:16:15.234Z,9.10
2023-04-14T12:18:46.173Z,8.07
2023-04-14T12:21:34.144Z,6.63
2023-04-14T12:24:03.122Z,10.27
2023-04-14T12:26:32.803Z,7.77
2023-04-14T12:29:02.529Z,9.03
2023-04-14T12:31:32.090Z,6.93
2023-04-14T12:34:06.694Z,17.13
2023-04-14T12:39:08.276Z,13.40
2023-04-14T12:41:42.220Z,18.90
2023-04-14T12:44:16.923Z,13.47
2023-04-14T12:46:50.192Z,8.40
2023-04-14T12:49:34.730Z,6.23
2023-04-14T12:52:04.091Z,5.13
2023-04-14T12:54:53.220Z,4.23
2023-04-14T12:57:22.975Z,4.93
2023-04-14T12:59:52.172Z,4.30
2023-04-14T13:02:24.640Z,4.07
2023-04-14T13:04:55.335Z,5.40
2023-04-14T13:07:24.690Z,4.80
2023-04-14T13:09:54.323Z,4.17
2023-04-14T13:12:23.360Z,4.10
2023-04-14T13:14:53.239Z,4.10
2023-04-14T13:17:22.428Z,4.80
2023-04-14T13:19:51.712Z,3.53
2023-04-14T13:22:22.045Z,4.53
2023-04-14T13:24:51.971Z,4.50
2023-04-14T13:27:21.432Z,4.93
2023-04-14T13:29:50.758Z,5.17
2023-04-14T13:32:19.915Z,5.20
2023-04-14T13:34:49.202Z,4.43
2023-04-14T13:37:19.598Z,3.40
2023-04-14T13:39:50.310Z,4.67
2023-04-14T13:42:19.223Z,5.97
2023-04-14T13:44:48.349Z,5.53
2023-04-14T13:47:19.040Z,4.57
2023-04-14T13:49:48.035Z,4.73
2023-04-14T13:52:17.249Z,3.90
2023-04-14T13:54:46.206Z,4.10
2023-04-14T13:57:16.698Z,3.87
2023-04-14T13:59:46.333Z,4.03
2023-04-14T14:02:15.725Z,3.83
2023-04-14T14:04:44.970Z,3.40
2023-04-14T14:07:14.100Z,3.57
2023-04-14T14:09:44.560Z,3.47
2023-04-14T14:12:17.277Z,4.83
2023-04-14T14:14:47.238Z,4.17
2023-04-14T14:17:17.182Z,4.73
2023-04-14T14:19:46.198Z,5.30
2023-04-14T14:22:15.116Z,4.77
2023-04-14T14:24:44.084Z,4.03
2023-04-14T14:27:13.078Z,4.10
2023-04-14T14:29:43.530Z,6.07
2023-04-14T14:32:12.617Z,6.40
2023-04-14T14:34:41.540Z,5.77
2023-04-14T14:37:10.487Z,5.07
2023-04-14T14:39:39.672Z,5.47
2023-04-14T14:42:11.986Z,5.17
2023-04-14T14:44:42.496Z,4.80
2023-04-14T14:47:11.510Z,4.80
2023-04-14T14:49:46.196Z,4.30
2023-04-14T14:52:29.552Z,5.33
2023-04-14T14:54:58.603Z,4.90
2023-04-14T14:57:28.654Z,5.60
2023-04-14T14:59:59.187Z,6.50
2023-04-14T15:02:28.360Z,6.40
2023-04-14T15:04:57.483Z,6.70
2023-04-14T15:07:26.485Z,6.10
2023-04-14T15:09:55.668Z,6.30
2023-04-14T15:12:24.649Z,6.03
2023-04-14T15:14:53.684Z,5.50
2023-04-14T15:17:24.392Z,6.47
2023-04-14T15:19:53.555Z,5.47
2023-04-14T15:22:22.723Z,5.50
2023-04-14T15:24:51.822Z,5.77
2023-04-14T15:27:20.789Z,5.63
2023-04-14T15:29:49.796Z,5.60
2023-04-14T15:32:24.501Z,7.87
2023-04-14T15:34:55.948Z,8.27
2023-04-14T15:37:26.342Z,9.27
2023-04-14T15:39:55.381Z,10.17
2023-04-14T15:42:24.357Z,14.70
2023-04-14T15:44:53.382Z,6.80
2023-04-14T15:47:22.381Z,7.53
2023-04-14T15:50:00.616Z,6.50
2023-04-14T15:52:40.499Z,6.67
2023-04-14T15:55:12.048Z,6.13
2023-04-14T15:57:41.087Z,7.87
2023-04-14T16:00:11.228Z,7.63
2023-04-14T16:02:46.216Z,7.23
2023-04-14T16:05:15.606Z,8.30
2023-04-14T16:07:46.773Z,9.17
2023-04-14T16:10:15.921Z,10.57
2023-04-14T16:12:45.021Z,11.63
2023-04-14T16:15:14.163Z,5.53
2023-04-14T16:17:43.796Z,4.63
2023-04-14T16:20:13.819Z,5.43
2023-04-14T16:22:42.709Z,10.57
2023-04-14T16:25:13.421Z,7.73
2023-04-14T16:27:42.940Z,9.90
2023-04-14T16:30:13.126Z,11.53
2023-04-14T16:32:42.224Z,14.30
2023-04-14T16:35:12.119Z,13.03
2023-04-14T16:37:41.260Z,16.80
2023-04-14T16:40:12.821Z,17.13
2023-04-14T16:42:41.846Z,87.93
2023-04-14T16:45:11.544Z,175.67
2023-04-14T16:47:40.930Z,142.63
2023-04-14T16:50:10.555Z,138.27
2023-04-14T16:52:39.453Z,60.47
2023-04-14T16:55:09.146Z,38.50
2023-04-14T16:57:39.526Z,35.87
2023-04-14T17:00:12.413Z,61.47
2023-04-14T17:02:42.945Z,139.33
2023-04-14T17:05:16.374Z,103.30
2023-04-14T17:07:47.094Z,33.10
2023-04-14T17:10:16.486Z,29.70
2023-04-14T17:12:47.448Z,21.60
2023-04-14T17:15:17.451Z,16.90
2023-04-14T17:17:46.753Z,11.00
2023-04-14T17:20:16.362Z,11.83
2023-04-14T17:23:04.164Z,17.83
2023-04-14T17:25:35.885Z,19.00
2023-04-14T17:28:11.420Z,20.80
2023-04-14T17:30:40.850Z,19.40
2023-04-14T17:33:10.830Z,20.17
2023-04-14T17:35:39.972Z,22.27
2023-04-14T17:38:09.173Z,24.63
2023-04-14T17:40:38.153Z,21.23
2023-04-14T17:43:08.758Z,27.50
2023-04-14T17:45:40.298Z,28.27
2023-04-14T17:48:09.791Z,22.50
2023-04-14T17:50:39.077Z,22.20
2023-04-14T17:53:09.131Z,19.07
2023-04-14T17:55:38.965Z,17.97
2023-04-14T17:58:10.402Z,19.20
2023-04-14T18:00:40.508Z,27.27
2023-04-14T18:03:09.818Z,28.57
2023-04-14T18:05:38.997Z,66.13
2023-04-14T18:08:08.455Z,61.77
2023-04-14T18:10:38.246Z,52.10
2023-04-14T18:13:09.899Z,55.23
2023-04-14T18:15:42.836Z,51.30
2023-04-14T18:18:12.018Z,63.93
2023-04-14T18:20:41.664Z,60.67
2023-04-14T18:23:10.850Z,43.80
2023-04-14T18:28:13.738Z,42.77
2023-04-14T18:30:42.883Z,43.57
2023-04-14T18:33:15.372Z,43.27
2023-04-14T18:35:44.544Z,48.93
2023-04-14T18:38:13.924Z,58.53
2023-04-14T18:40:42.920Z,65.70
2023-04-14T18:43:22.087Z,86.37
2023-04-14T18:45:51.742Z,78.97
2023-04-14T18:48:20.930Z,75.87
2023-04-14T18:50:57.582Z,73.40
2023-04-14T18:53:26.838Z,84.73
2023-04-14T18:55:55.895Z,81.03
2023-04-14T18:58:26.348Z,78.97
2023-04-14T19:00:55.534Z,71.80
2023-04-14T19:03:24.691Z,63.37
2023-04-14T19:05:55.564Z,63.30
2023-04-14T19:08:43.276Z,50.87
2023-04-14T19:11:12.454Z,51.73
2023-04-14T19:13:43.979Z,49.57
2023-04-14T19:16:14.043Z,43.20
2023-04-14T19:19:02.210Z,36.33
2023-04-14T19:21:32.204Z,37.20
2023-04-14T19:24:01.182Z,55.50
2023-04-14T19:26:31.033Z,98.00
2023-04-14T19:29:01.838Z,70.87
2023-04-14T19:31:31.566Z,51.57
2023-04-14T19:34:00.855Z,50.03
2023-04-14T19:36:32.519Z,44.83
2023-04-14T19:39:01.925Z,42.67
2023-04-14T19:41:31.125Z,38.10
2023-04-14T19:44:04.405Z,32.90
2023-04-14T19:46:35.893Z,31.17
2023-04-14T19:49:05.710Z,25.07
2023-04-14T19:51:36.876Z,20.40
2023-04-14T19:54:07.647Z,21.97
2023-04-14T19:56:37.120Z,21.63
2023-04-14T19:59:08.451Z,20.73
2023-04-14T20:01:38.604Z,19.90
2023-04-14T20:04:12.334Z,21.50
2023-04-14T20:06:43.071Z,22.40
2023-04-14T20:09:12.374Z,21.37
2023-04-14T20:11:41.296Z,21.53
2023-04-14T20:14:11.659Z,23.20
2023-04-14T20:16:40.889Z,26.17
2023-04-14T20:19:10.210Z,26.83
2023-04-14T20:21:40.010Z,24.90
2023-04-14T20:24:08.998Z,36.20
2023-04-14T20:26:42.791Z,44.10
2023-04-14T20:29:13.470Z,43.33
2023-04-14T20:31:44.419Z,42.30
2023-04-14T20:34:13.692Z,44.77
2023-04-14T20:36:45.134Z,47.87
2023-04-14T20:39:14.136Z,43.63
2023-04-14T20:41:43.249Z,42.03
2023-04-14T20:44:17.317Z,44.97
2023-04-14T20:46:46.910Z,46.40
2023-04-14T20:49:15.846Z,57.27
2023-04-14T20:51:47.143Z,53.20
2023-04-14T20:54:16.635Z,52.60
2023-04-14T20:56:45.750Z,59.97
2023-04-14T20:59:16.801Z,38.97
2023-04-14T21:01:48.657Z,36.43
2023-04-14T21:04:19.479Z,34.60
2023-04-14T21:06:49.374Z,38.33
2023-04-14T21:09:18.876Z,42.40
2023-04-14T21:11:47.979Z,42.57
2023-04-14T21:15:30.528Z,42.73
2023-04-14T21:17:28.003Z,42.03
2023-04-14T21:19:57.725Z,40.83
2023-04-14T21:22:58.778Z,40.30
2023-04-14T21:25:33.933Z,41.17
2023-04-14T21:28:05.330Z,56.07
2023-04-14T21:30:38.490Z,57.17
2023-04-14T21:33:08.950Z,56.10
2023-04-14T21:35:38.236Z,54.43
2023-04-14T21:38:07.846Z,54.60
2023-04-14T21:40:37.445Z,53.73
2023-04-14T21:43:08.109Z,70.27
2023-04-14T21:45:39.782Z,59.87
2023-04-14T21:48:09.081Z,51.43
2023-04-14T21:50:40.354Z,57.53
2023-04-14T21:53:10.886Z,37.73
2023-04-14T21:55:40.726Z,29.73
2023-04-14T21:58:11.021Z,31.57
2023-04-14T22:00:42.537Z,28.07
2023-04-14T22:03:12.204Z,25.63
2023-04-14T22:05:41.440Z,44.00
2023-04-14T22:08:10.726Z,39.30
2023-04-14T22:10:43.833Z,55.90
2023-04-14T22:13:13.267Z,82.33
2023-04-14T22:15:45.052Z,97.20
2023-04-14T22:18:14.106Z,93.37
2023-04-14T22:20:43.199Z,92.50
2023-04-14T22:23:12.526Z,90.60
2023-04-14T22:25:41.619Z,90.03
2023-04-14T22:28:11.817Z,93.17
2023-04-14T22:31:01.310Z,84.77
2023-04-14T22:33:30.445Z,71.07
2023-04-14T22:36:01.623Z,66.50
2023-04-14T22:38:31.095Z,67.17
2023-04-14T22:41:00.171Z,112.23
2023-04-14T22:43:29.997Z,102.13
2023-04-14T22:46:00.615Z,95.57
2023-04-14T22:48:29.604Z,64.47
2023-04-14T22:50:58.617Z,69.60
2023-04-14T22:53:30.589Z,51.63
2023-04-14T22:55:59.561Z,44.63
2023-04-14T22:58:32.709Z,83.93
2023-04-14T23:01:12.039Z,78.37
2023-04-14T23:03:51.272Z,48.57
2023-04-14T23:06:28.857Z,36.60
2023-04-14T23:08:57.985Z,30.00
2023-04-14T23:11:27.323Z,26.00
2023-04-14T23:13:56.851Z,27.63
2023-04-14T23:16:27.862Z,40.13
2023-04-14T23:18:58.361Z,28.07
2023-04-14T23:21:28.265Z,23.03
2023-04-14T23:23:58.326Z,23.63
2023-04-14T23:26:28.722Z,22.90
2023-04-14T23:28:58.020Z,22.43
2023-04-14T23:31:29.002Z,22.13
2023-04-14T23:33:57.988Z,20.83
2023-04-14T23:36:27.011Z,21.23
2023-04-14T23:38:56.347Z,19.90
2023-04-14T23:41:25.635Z,21.70
2023-04-14T23:43:54.798Z,29.60
2023-04-14T23:46:24.043Z,37.83
2023-04-14T23:48:54.594Z,45.97
2023-04-14T23:51:24.787Z,52.70
2023-04-14T23:53:53.903Z,48.30
2023-04-14T23:56:22.924Z,52.47
2023-04-14T23:58:52.289Z,59.77
